»·PEaware :: N629JG TNCM-MDPP

N629JG :: TNCM-MDPP

FLIGHT INFORMATION

Flight Status: Arrived
Operator: Privately registered:
United States
More flights under this callsign
Pilot: Lester F. (25731)
Aircraft: Unknown
(C90)
More flights by this aircraft type
Origin: TNCM Princess Juliana Intl
Netherlands Antilles
Destination: MDPP Gregorio Luperon Intl
Dominican Republic
More flights between these airports :: More routes between these airports
Route: BQN
File this flight plan on PilotEdge
Remarks:
Altitude:
(Current/Filed)
16,500ft
Speed:
(Current/Filed)
235kts
Departed: 30-Jul-20 05:27 AM
Arrived: 30-Jul-20 07:51 AM
Distance/Time
Traveled:
436nm/2:24
Distance/Time
To Go:
Arrived

Flight Plot

Page will automatically refresh every two minutes.

Flight plan parsing failed; only flown route is shown


Map Options




Map Legend


Flown Route
Filed Route
Departure Airport
Arrival Airport
Navaid (VOR, NDB)
Fix

Horizontal Profiles

Position Reports

Time Latitude Longitude Heading Altitude Ground
Speed
30-Jul-20 05:19 18.041785 -63.111129 82 18ft 0kts
30-Jul-20 05:20 18.041785 -63.111125 82 18ft 0kts
30-Jul-20 05:21 18.041785 -63.111122 82 18ft 0kts
30-Jul-20 05:22 18.040648 -63.110711 256 18ft 14kts
30-Jul-20 05:23 18.040212 -63.115013 289 18ft 15kts
30-Jul-20 05:24 18.040276 -63.118996 244 18ft 12kts
30-Jul-20 05:25 18.039516 -63.119765 170 18ft 14kts
30-Jul-20 05:26 18.041759 -63.100601 83 818ft 97kts
30-Jul-20 05:27 18.061183 -63.104147 260 2571ft 126kts
30-Jul-20 05:28 18.053871 -63.139270 256 4587ft 129kts
30-Jul-20 05:29 18.051031 -63.178281 274 6420ft 138kts
30-Jul-20 05:30 18.055206 -63.218916 276 8237ft 140kts
30-Jul-20 05:31 18.060145 -63.259454 277 10015ft 138kts
30-Jul-20 05:32 18.065098 -63.299553 277 11580ft 147kts
30-Jul-20 05:33 18.071151 -63.348379 277 12407ft 185kts
30-Jul-20 05:34 18.078171 -63.405188 277 13138ft 203kts
30-Jul-20 05:35 18.085512 -63.464915 277 13870ft 207kts
30-Jul-20 05:36 18.092659 -63.523296 277 14844ft 199kts
30-Jul-20 05:37 18.099627 -63.580382 277 15828ft 195kts
30-Jul-20 05:38 18.106623 -63.637867 277 16498ft 207kts
30-Jul-20 05:39 18.114289 -63.701032 277 16499ft 230kts
30-Jul-20 05:40 18.122646 -63.770139 277 16475ft 239kts
30-Jul-20 05:41 18.131093 -63.840227 277 16468ft 241kts
30-Jul-20 05:42 18.139508 -63.910233 277 16469ft 241kts
30-Jul-20 05:43 18.147902 -63.980270 277 16466ft 242kts
30-Jul-20 05:44 18.156304 -64.050596 277 16455ft 242kts
30-Jul-20 05:45 18.164672 -64.120853 277 16455ft 242kts
30-Jul-20 05:46 18.172997 -64.190975 277 16455ft 242kts
30-Jul-20 05:47 18.181313 -64.261242 277 16455ft 242kts
30-Jul-20 05:48 18.189606 -64.331535 277 16455ft 242kts
30-Jul-20 05:49 18.197839 -64.401538 277 16498ft 237kts
30-Jul-20 05:50 18.205866 -64.469838 277 16501ft 233kts
30-Jul-20 05:51 18.213736 -64.537021 277 16501ft 231kts
30-Jul-20 05:52 18.221576 -64.604238 276 16499ft 231kts
30-Jul-20 05:53 18.229379 -64.671370 276 16498ft 231kts
30-Jul-20 05:54 18.237169 -64.738618 276 16496ft 231kts
30-Jul-20 05:55 18.244947 -64.805965 276 16494ft 231kts
30-Jul-20 05:56 18.252678 -64.873123 276 16495ft 231kts
30-Jul-20 05:57 18.260376 -64.940197 276 16491ft 231kts
30-Jul-20 05:58 18.268094 -65.007658 276 16488ft 231kts
30-Jul-20 05:59 18.275744 -65.074733 276 16488ft 231kts
30-Jul-20 06:00 18.283407 -65.142144 276 16487ft 231kts
30-Jul-20 06:01 18.291031 -65.209434 276 16483ft 231kts
30-Jul-20 06:02 18.298623 -65.276648 276 16483ft 231kts
30-Jul-20 06:03 18.306195 -65.343892 276 16482ft 231kts
30-Jul-20 06:04 18.313756 -65.411262 276 16475ft 232kts
30-Jul-20 06:05 18.321298 -65.478662 276 16481ft 231kts
30-Jul-20 06:06 18.328800 -65.545914 276 16483ft 231kts
30-Jul-20 06:07 18.336262 -65.613024 276 16482ft 231kts
30-Jul-20 06:08 18.343712 -65.680259 276 16475ft 231kts
30-Jul-20 06:09 18.351137 -65.747481 276 16476ft 231kts
30-Jul-20 06:10 18.358555 -65.814847 276 16476ft 231kts
30-Jul-20 06:12 18.365933 -65.882084 276 16465ft 231kts
30-Jul-20 06:13 18.373281 -65.949263 276 16464ft 231kts
30-Jul-20 06:14 18.380624 -66.016608 276 16464ft 231kts
30-Jul-20 06:15 18.387960 -66.084100 276 16465ft 231kts
30-Jul-20 06:16 18.395240 -66.151316 276 16465ft 231kts
30-Jul-20 06:17 18.402506 -66.218603 276 16465ft 231kts
30-Jul-20 06:18 18.409765 -66.286055 276 16465ft 231kts
30-Jul-20 06:19 18.416984 -66.353340 276 16463ft 231kts
30-Jul-20 06:20 18.424116 -66.420031 276 16461ft 231kts
30-Jul-20 06:21 18.431386 -66.488208 276 16462ft 231kts
30-Jul-20 06:22 18.438538 -66.555482 276 16461ft 231kts
30-Jul-20 06:23 18.445654 -66.622615 276 16493ft 230kts
30-Jul-20 06:24 18.452795 -66.689789 276 16502ft 231kts
30-Jul-20 06:25 18.459847 -66.756901 276 16500ft 231kts
30-Jul-20 06:26 18.466948 -66.824439 276 16491ft 231kts
30-Jul-20 06:27 18.474026 -66.891695 276 16490ft 231kts
30-Jul-20 06:28 18.481122 -66.958961 276 16495ft 231kts
30-Jul-20 06:29 18.488285 -67.026281 276 16491ft 231kts
30-Jul-20 06:29 18.494482 -67.082500 277 16474ft 231kts
30-Jul-20 06:31 18.515884 -67.158009 290 16474ft 231kts
30-Jul-20 06:32 18.534678 -67.222847 286 16480ft 231kts
30-Jul-20 06:32 18.550494 -67.276840 287 16482ft 231kts
30-Jul-20 06:34 18.573160 -67.351971 287 16486ft 231kts
30-Jul-20 06:34 18.589532 -67.405839 287 16490ft 231kts
30-Jul-20 06:35 18.609143 -67.470321 287 16490ft 231kts
30-Jul-20 06:36 18.628876 -67.535306 287 16358ft 235kts
30-Jul-20 06:37 18.648720 -67.600818 287 16300ft 233kts
30-Jul-20 06:38 18.668421 -67.665763 287 16300ft 232kts
30-Jul-20 06:39 18.688055 -67.730564 287 16300ft 231kts
30-Jul-20 06:40 18.707626 -67.795279 287 16298ft 231kts
30-Jul-20 06:41 18.727194 -67.860092 287 16299ft 231kts
30-Jul-20 06:42 18.746706 -67.924810 287 16299ft 231kts
30-Jul-20 06:43 18.766211 -67.989596 287 16298ft 231kts
30-Jul-20 06:44 18.785397 -68.053217 287 16499ft 228kts
30-Jul-20 06:45 18.804725 -68.117616 287 16499ft 231kts
30-Jul-20 06:46 18.824084 -68.182287 287 16499ft 231kts
30-Jul-20 06:47 18.843443 -68.246995 287 16500ft 231kts
30-Jul-20 06:48 18.862855 -68.311942 287 16500ft 231kts
30-Jul-20 06:49 18.882222 -68.376813 287 16499ft 231kts
30-Jul-20 06:50 18.901630 -68.441906 287 16500ft 231kts
30-Jul-20 06:51 18.920920 -68.506695 287 16501ft 231kts
30-Jul-20 06:52 18.940268 -68.571766 287 16501ft 231kts
30-Jul-20 06:53 18.959507 -68.636567 287 16501ft 232kts
30-Jul-20 06:54 18.978821 -68.701706 287 16504ft 231kts
30-Jul-20 06:55 18.998045 -68.766624 287 16507ft 231kts
30-Jul-20 06:56 19.017248 -68.831573 287 16506ft 231kts
30-Jul-20 06:57 19.036471 -68.896680 287 16507ft 231kts
30-Jul-20 06:58 19.055620 -68.961617 287 16516ft 231kts
30-Jul-20 06:59 19.074785 -69.026718 287 16513ft 232kts
30-Jul-20 07:00 19.093889 -69.091706 287 16511ft 232kts
30-Jul-20 07:01 19.112960 -69.156663 287 16538ft 230kts
30-Jul-20 07:02 19.131951 -69.221368 287 16573ft 231kts
30-Jul-20 07:03 19.150982 -69.286393 287 16574ft 231kts
30-Jul-20 07:04 19.170018 -69.351539 287 16594ft 231kts
30-Jul-20 07:05 19.188929 -69.416286 287 16634ft 230kts
30-Jul-20 07:06 19.207909 -69.481405 287 16635ft 231kts
30-Jul-20 07:07 19.226881 -69.546617 287 16635ft 232kts
30-Jul-20 07:08 19.245791 -69.611690 287 16637ft 232kts
30-Jul-20 07:09 19.264768 -69.677063 287 16641ft 232kts
30-Jul-20 07:10 19.283642 -69.742179 287 16639ft 232kts
30-Jul-20 07:11 19.302620 -69.807594 287 16638ft 232kts
30-Jul-20 07:12 19.323574 -69.872211 288 16654ft 231kts
30-Jul-20 07:13 19.343103 -69.937029 287 16654ft 232kts
30-Jul-20 07:14 19.361665 -70.000798 287 16671ft 238kts
30-Jul-20 07:15 19.380407 -70.065807 286 15285ft 235kts
30-Jul-20 07:16 19.396303 -70.121026 286 14322ft 164kts
30-Jul-20 07:17 19.408896 -70.164802 286 13437ft 153kts
30-Jul-20 07:18 19.421326 -70.208102 286 12441ft 153kts
30-Jul-20 07:19 19.433750 -70.251443 286 11346ft 158kts
30-Jul-20 07:20 19.446809 -70.297049 286 10096ft 159kts
30-Jul-20 07:21 19.459581 -70.341682 286 8994ft 156kts
30-Jul-20 07:22 19.472160 -70.385683 286 7898ft 155kts
30-Jul-20 07:23 19.484678 -70.429512 286 6798ft 154kts
30-Jul-20 07:24 19.496625 -70.471455 286 6533ft 161kts
30-Jul-20 07:25 19.511531 -70.523991 286 6506ft 201kts
30-Jul-20 07:26 19.527835 -70.581308 286 6500ft 199kts
30-Jul-20 07:27 19.543637 -70.636959 286 6500ft 196kts
30-Jul-20 07:28 19.559320 -70.692163 286 6502ft 195kts
30-Jul-20 07:29 19.575000 -70.747432 286 6500ft 195kts
30-Jul-20 07:30 19.590666 -70.802804 286 6500ft 195kts
30-Jul-20 07:31 19.606305 -70.858009 286 6501ft 195kts
30-Jul-20 07:32 19.621923 -70.913223 286 6498ft 195kts
30-Jul-20 07:33 19.638190 -70.968462 298 6488ft 196kts
30-Jul-20 07:34 19.677750 -70.957092 87 5960ft 208kts
30-Jul-20 07:35 19.661902 -70.905608 89 5318ft 156kts
30-Jul-20 07:36 19.673531 -70.861671 72 5010ft 152kts
30-Jul-20 07:37 19.686185 -70.818279 73 4766ft 152kts
30-Jul-20 07:38 19.698738 -70.775210 73 4595ft 152kts
30-Jul-20 07:39 19.710998 -70.732795 72 4271ft 135kts
30-Jul-20 07:40 19.700779 -70.719673 274 3397ft 99kts
30-Jul-20 07:41 19.703926 -70.750506 264 3287ft 117kts
30-Jul-20 07:42 19.706692 -70.779895 357 3622ft 116kts
30-Jul-20 07:43 19.707034 -70.750869 95 3465ft 117kts
30-Jul-20 07:44 19.715069 -70.718515 72 2244ft 107kts
30-Jul-20 07:45 19.723954 -70.687960 73 1725ft 113kts
30-Jul-20 07:46 19.733195 -70.655974 72 1403ft 112kts
30-Jul-20 07:47 19.741964 -70.625549 71 1043ft 81kts
30-Jul-20 07:48 19.748291 -70.602766 71 407ft 75kts
30-Jul-20 07:49 19.754180 -70.582802 71 22ft 57kts
30-Jul-20 07:50 19.755384 -70.576348 161 20ft 0kts

Navigation Log

Ident Type
Flight plan parsing failed, navigation log unavailable